Gypsum, CO (81637)

9:43 PM MDT on September 24, 2016 (GMT -0600)
CODOT | | Change Station

Elev 6124 ft 39.61 °N, 107.14 °W | Updated 41 minutes ago

Overcast
Overcast
48.0 °F
Feels Like 48.0 °F
N
1.0
Wind Variable Wind from NW
Gusts 8.0 mph

Today
High -- | Low -- °F
--% Chance of Precip.
Yesterday
High -- | Low -- °F
Precip. -- in
Pressure 30.38 in
Visibility 10.0 miles
Clouds Overcast 9000 ft
Dew Point 36.0 °F
Humidity 62%
Rainfall in
Snow Depth Not available.
6:57 AM 7:00 PM
Waning Crescent, 32% visible
METAR KEGE 250335Z AUTO 07004KT 10SM OVC090 08/03 A3038 RMK AO1
Pressure 30.38 in
Visibility 10.0 miles
Clouds Overcast 9000 ft
Dew Point 36.0 °F
Humidity 62%
Rainfall in
Snow Depth Not available.
6:57 AM 7:00 PM
Waning Crescent, 32% visible
METAR KEGE 250335Z AUTO 07004KT 10SM OVC090 08/03 A3038 RMK AO1

10-Day Weather Forecast

Almanac

Astronomy

Sep. 24, 2016 Rise Set
Actual Time
Civil Twilight
Nautical Twilight
Astronomical Twilight
Moon
Length of Visible Light
Length of Day
Tomorrow will be .
, % of the Moon is Illuminated

Today's Extremes

State Highs State Lows

Community

WunderPhotos

Upload Photos

1,941,537 photos uploaded!

WunderBlog® & News

Nearby

Air Quality

  Air Quality AQ Index Pollutant
Not available.

Snow Depth

Station Depth Elevation

Earthquake Activity

City Distance Mag. Time & Date
Minimum magnitude displayed is 2.5.

Coastal Water Temperatures

Place Temperature

Stations

Nearby Weather Stations

Station Location Temp. Windchill Dew Point Humidity Wind Precip. Elev Updated Type
                   

Watches & Warnings

There are currently no watches in effect.